sensor_id;sensor_type;location;lat;lon;timestamp;P1;durP1;ratioP1;P2;durP2;ratioP2
71753;SDS011;59593;51.716;7.016;2024-02-28T00:00:46;44.67;;;22.90;;
71753;SDS011;59593;51.716;7.016;2024-02-28T00:03:11;126.20;;;22.53;;
71753;SDS011;59593;51.716;7.016;2024-02-28T00:05:37;50.07;;;21.90;;
71753;SDS011;59593;51.716;7.016;2024-02-28T00:08:03;68.57;;;21.50;;
71753;SDS011;59593;51.716;7.016;2024-02-28T00:10:29;57.67;;;22.17;;
71753;SDS011;59593;51.716;7.016;2024-02-28T00:12:57;191.60;;;23.10;;
71753;SDS011;59593;51.716;7.016;2024-02-28T00:15:23;78.97;;;22.40;;
71753;SDS011;59593;51.716;7.016;2024-02-28T00:17:51;55.13;;;21.83;;
71753;SDS011;59593;51.716;7.016;2024-02-28T00:20:18;147.73;;;26.93;;
71753;SDS011;59593;51.716;7.016;2024-02-28T00:22:43;127.00;;;23.73;;
71753;SDS011;59593;51.716;7.016;2024-02-28T00:25:09;160.80;;;24.60;;
71753;SDS011;59593;51.716;7.016;2024-02-28T00:27:36;210.67;;;28.37;;
71753;SDS011;59593;51.716;7.016;2024-02-28T00:30:05;135.90;;;24.63;;
71753;SDS011;59593;51.716;7.016;2024-02-28T00:32:31;133.03;;;24.70;;
71753;SDS011;59593;51.716;7.016;2024-02-28T00:34:57;66.97;;;21.97;;
71753;SDS011;59593;51.716;7.016;2024-02-28T00:37:23;130.80;;;21.97;;
71753;SDS011;59593;51.716;7.016;2024-02-28T00:39:49;309.13;;;25.93;;
71753;SDS011;59593;51.716;7.016;2024-02-28T00:42:15;116.93;;;21.17;;
71753;SDS011;59593;51.716;7.016;2024-02-28T00:44:40;132.53;;;24.50;;
71753;SDS011;59593;51.716;7.016;2024-02-28T00:47:08;67.17;;;23.87;;
71753;SDS011;59593;51.716;7.016;2024-02-28T00:49:34;95.73;;;24.33;;
71753;SDS011;59593;51.716;7.016;2024-02-28T00:52:00;99.47;;;22.73;;
71753;SDS011;59593;51.716;7.016;2024-02-28T00:54:26;127.27;;;19.67;;
71753;SDS011;59593;51.716;7.016;2024-02-28T00:56:51;85.47;;;19.37;;
71753;SDS011;59593;51.716;7.016;2024-02-28T00:59:17;88.90;;;20.03;;
71753;SDS011;59593;51.716;7.016;2024-02-28T01:01:42;118.93;;;19.00;;
71753;SDS011;59593;51.716;7.016;2024-02-28T01:04:08;93.40;;;18.37;;
71753;SDS011;59593;51.716;7.016;2024-02-28T01:06:34;78.83;;;17.27;;
71753;SDS011;59593;51.716;7.016;2024-02-28T01:08:59;74.33;;;17.47;;
71753;SDS011;59593;51.716;7.016;2024-02-28T01:11:25;70.67;;;18.40;;
71753;SDS011;59593;51.716;7.016;2024-02-28T01:13:50;106.07;;;18.77;;
71753;SDS011;59593;51.716;7.016;2024-02-28T01:16:16;88.73;;;17.70;;
71753;SDS011;59593;51.716;7.016;2024-02-28T01:18:42;74.87;;;19.27;;
71753;SDS011;59593;51.716;7.016;2024-02-28T01:21:07;63.53;;;18.53;;
71753;SDS011;59593;51.716;7.016;2024-02-28T01:23:33;75.17;;;19.20;;
71753;SDS011;59593;51.716;7.016;2024-02-28T01:25:59;144.57;;;18.20;;
71753;SDS011;59593;51.716;7.016;2024-02-28T01:28:24;91.13;;;17.13;;
71753;SDS011;59593;51.716;7.016;2024-02-28T01:30:50;66.73;;;17.73;;
71753;SDS011;59593;51.716;7.016;2024-02-28T01:33:16;64.83;;;19.27;;
71753;SDS011;59593;51.716;7.016;2024-02-28T01:35:41;105.33;;;18.17;;
71753;SDS011;59593;51.716;7.016;2024-02-28T01:38:07;84.20;;;17.53;;
71753;SDS011;59593;51.716;7.016;2024-02-28T01:40:33;116.03;;;17.17;;
71753;SDS011;59593;51.716;7.016;2024-02-28T01:43:07;199.43;;;18.90;;
71753;SDS011;59593;51.716;7.016;2024-02-28T01:45:33;151.50;;;17.97;;
71753;SDS011;59593;51.716;7.016;2024-02-28T01:47:59;104.70;;;17.53;;
71753;SDS011;59593;51.716;7.016;2024-02-28T01:50:24;101.97;;;18.47;;
71753;SDS011;59593;51.716;7.016;2024-02-28T01:52:50;141.40;;;18.03;;
71753;SDS011;59593;51.716;7.016;2024-02-28T01:55:16;144.03;;;18.37;;
71753;SDS011;59593;51.716;7.016;2024-02-28T01:57:42;81.83;;;17.97;;
71753;SDS011;59593;51.716;7.016;2024-02-28T02:00:08;138.40;;;18.10;;
71753;SDS011;59593;51.716;7.016;2024-02-28T02:02:35;218.47;;;18.47;;
71753;SDS011;59593;51.716;7.016;2024-02-28T02:05:02;88.70;;;18.50;;
71753;SDS011;59593;51.716;7.016;2024-02-28T02:07:27;87.43;;;17.37;;
71753;SDS011;59593;51.716;7.016;2024-02-28T02:09:53;105.17;;;17.43;;
71753;SDS011;59593;51.716;7.016;2024-02-28T02:12:19;94.23;;;16.50;;
71753;SDS011;59593;51.716;7.016;2024-02-28T02:14:48;82.57;;;17.70;;
71753;SDS011;59593;51.716;7.016;2024-02-28T02:17:14;251.30;;;21.20;;
71753;SDS011;59593;51.716;7.016;2024-02-28T02:19:39;107.47;;;16.93;;
71753;SDS011;59593;51.716;7.016;2024-02-28T02:22:05;106.93;;;17.90;;
71753;SDS011;59593;51.716;7.016;2024-02-28T02:24:33;99.13;;;18.20;;
71753;SDS011;59593;51.716;7.016;2024-02-28T02:26:59;163.57;;;17.37;;
71753;SDS011;59593;51.716;7.016;2024-02-28T02:29:25;309.53;;;20.47;;
71753;SDS011;59593;51.716;7.016;2024-02-28T02:31:53;142.27;;;17.63;;
71753;SDS011;59593;51.716;7.016;2024-02-28T02:34:18;36.10;;;16.63;;
71753;SDS011;59593;51.716;7.016;2024-02-28T02:36:44;190.93;;;19.47;;
71753;SDS011;59593;51.716;7.016;2024-02-28T02:39:10;58.60;;;16.27;;
71753;SDS011;59593;51.716;7.016;2024-02-28T02:41:35;107.50;;;19.80;;
71753;SDS011;59593;51.716;7.016;2024-02-28T02:44:01;65.03;;;18.80;;
71753;SDS011;59593;51.716;7.016;2024-02-28T02:46:26;60.93;;;16.67;;
71753;SDS011;59593;51.716;7.016;2024-02-28T02:48:52;80.47;;;18.37;;
71753;SDS011;59593;51.716;7.016;2024-02-28T02:51:20;133.67;;;18.67;;
71753;SDS011;59593;51.716;7.016;2024-02-28T02:53:46;92.07;;;18.80;;
71753;SDS011;59593;51.716;7.016;2024-02-28T02:56:12;74.90;;;18.60;;
71753;SDS011;59593;51.716;7.016;2024-02-28T02:58:37;127.83;;;19.17;;
71753;SDS011;59593;51.716;7.016;2024-02-28T03:01:03;140.50;;;19.67;;
71753;SDS011;59593;51.716;7.016;2024-02-28T03:03:28;138.03;;;18.47;;
71753;SDS011;59593;51.716;7.016;2024-02-28T03:05:54;81.27;;;17.57;;
71753;SDS011;59593;51.716;7.016;2024-02-28T03:08:20;191.50;;;19.47;;
71753;SDS011;59593;51.716;7.016;2024-02-28T03:10:45;64.83;;;18.10;;
71753;SDS011;59593;51.716;7.016;2024-02-28T03:13:11;93.03;;;19.33;;
71753;SDS011;59593;51.716;7.016;2024-02-28T03:15:36;60.73;;;19.63;;
71753;SDS011;59593;51.716;7.016;2024-02-28T03:18:02;60.67;;;19.70;;
71753;SDS011;59593;51.716;7.016;2024-02-28T03:20:28;111.37;;;20.37;;
71753;SDS011;59593;51.716;7.016;2024-02-28T03:22:54;58.53;;;19.87;;
71753;SDS011;59593;51.716;7.016;2024-02-28T03:25:19;102.17;;;19.43;;
71753;SDS011;59593;51.716;7.016;2024-02-28T03:27:45;111.77;;;19.70;;
71753;SDS011;59593;51.716;7.016;2024-02-28T03:30:10;125.67;;;21.07;;
71753;SDS011;59593;51.716;7.016;2024-02-28T03:32:36;73.20;;;19.77;;
71753;SDS011;59593;51.716;7.016;2024-02-28T03:35:02;81.90;;;20.20;;
71753;SDS011;59593;51.716;7.016;2024-02-28T03:37:29;93.83;;;20.43;;
71753;SDS011;59593;51.716;7.016;2024-02-28T03:39:54;161.73;;;21.53;;
71753;SDS011;59593;51.716;7.016;2024-02-28T03:42:20;99.43;;;20.57;;
71753;SDS011;59593;51.716;7.016;2024-02-28T03:44:46;91.80;;;21.03;;
71753;SDS011;59593;51.716;7.016;2024-02-28T03:47:11;159.23;;;23.60;;
71753;SDS011;59593;51.716;7.016;2024-02-28T03:49:37;93.07;;;23.10;;
71753;SDS011;59593;51.716;7.016;2024-02-28T03:52:02;72.63;;;23.43;;
71753;SDS011;59593;51.716;7.016;2024-02-28T03:54:31;109.73;;;21.57;;
71753;SDS011;59593;51.716;7.016;2024-02-28T03:56:56;54.33;;;22.27;;
71753;SDS011;59593;51.716;7.016;2024-02-28T03:59:23;88.03;;;21.87;;
71753;SDS011;59593;51.716;7.016;2024-02-28T04:01:49;97.50;;;21.10;;
71753;SDS011;59593;51.716;7.016;2024-02-28T04:04:14;99.70;;;22.07;;
71753;SDS011;59593;51.716;7.016;2024-02-28T04:06:40;90.77;;;21.47;;
71753;SDS011;59593;51.716;7.016;2024-02-28T04:09:05;66.57;;;21.73;;
71753;SDS011;59593;51.716;7.016;2024-02-28T04:11:31;77.90;;;22.00;;
71753;SDS011;59593;51.716;7.016;2024-02-28T04:13:57;108.37;;;23.07;;
71753;SDS011;59593;51.716;7.016;2024-02-28T04:16:23;86.83;;;21.83;;
71753;SDS011;59593;51.716;7.016;2024-02-28T04:18:49;103.20;;;23.77;;
71753;SDS011;59593;51.716;7.016;2024-02-28T04:21:14;213.97;;;26.43;;
71753;SDS011;59593;51.716;7.016;2024-02-28T04:23:40;90.10;;;23.97;;
71753;SDS011;59593;51.716;7.016;2024-02-28T04:26:06;73.07;;;23.80;;
71753;SDS011;59593;51.716;7.016;2024-02-28T04:28:32;170.20;;;25.43;;
71753;SDS011;59593;51.716;7.016;2024-02-28T04:30:58;146.67;;;25.60;;
71753;SDS011;59593;51.716;7.016;2024-02-28T04:33:23;105.27;;;24.37;;
71753;SDS011;59593;51.716;7.016;2024-02-28T04:35:49;69.70;;;25.00;;
71753;SDS011;59593;51.716;7.016;2024-02-28T04:38:14;84.87;;;25.60;;
71753;SDS011;59593;51.716;7.016;2024-02-28T04:40:40;61.67;;;24.73;;
71753;SDS011;59593;51.716;7.016;2024-02-28T04:43:05;75.97;;;24.70;;
71753;SDS011;59593;51.716;7.016;2024-02-28T04:45:31;78.13;;;24.63;;
71753;SDS011;59593;51.716;7.016;2024-02-28T04:47:56;97.60;;;24.63;;
71753;SDS011;59593;51.716;7.016;2024-02-28T04:50:22;61.53;;;24.07;;
71753;SDS011;59593;51.716;7.016;2024-02-28T04:52:48;104.53;;;26.20;;
71753;SDS011;59593;51.716;7.016;2024-02-28T04:55:14;113.70;;;25.97;;
71753;SDS011;59593;51.716;7.016;2024-02-28T04:57:39;136.27;;;26.20;;
71753;SDS011;59593;51.716;7.016;2024-02-28T05:00:05;69.30;;;26.43;;
71753;SDS011;59593;51.716;7.016;2024-02-28T05:02:33;97.43;;;26.33;;
71753;SDS011;59593;51.716;7.016;2024-02-28T05:04:59;130.50;;;29.40;;
71753;SDS011;59593;51.716;7.016;2024-02-28T05:07:24;89.20;;;26.77;;
71753;SDS011;59593;51.716;7.016;2024-02-28T05:09:50;84.27;;;26.57;;
71753;SDS011;59593;51.716;7.016;2024-02-28T05:12:15;157.33;;;31.73;;
71753;SDS011;59593;51.716;7.016;2024-02-28T05:14:41;143.97;;;30.40;;
71753;SDS011;59593;51.716;7.016;2024-02-28T05:17:07;126.60;;;30.10;;
71753;SDS011;59593;51.716;7.016;2024-02-28T05:19:32;251.43;;;35.57;;
71753;SDS011;59593;51.716;7.016;2024-02-28T05:21:58;97.10;;;31.33;;
71753;SDS011;59593;51.716;7.016;2024-02-28T05:24:26;77.80;;;29.70;;
71753;SDS011;59593;51.716;7.016;2024-02-28T05:26:51;98.73;;;33.57;;
71753;SDS011;59593;51.716;7.016;2024-02-28T05:29:17;133.77;;;33.13;;
71753;SDS011;59593;51.716;7.016;2024-02-28T05:31:42;110.63;;;32.77;;
71753;SDS011;59593;51.716;7.016;2024-02-28T05:34:08;197.60;;;33.50;;
71753;SDS011;59593;51.716;7.016;2024-02-28T05:36:33;75.00;;;30.50;;
71753;SDS011;59593;51.716;7.016;2024-02-28T05:38:59;123.57;;;31.97;;
71753;SDS011;59593;51.716;7.016;2024-02-28T05:41:26;100.63;;;33.07;;
71753;SDS011;59593;51.716;7.016;2024-02-28T05:43:52;88.33;;;32.47;;
71753;SDS011;59593;51.716;7.016;2024-02-28T05:46:18;169.97;;;35.03;;
71753;SDS011;59593;51.716;7.016;2024-02-28T05:48:45;206.10;;;34.17;;
71753;SDS011;59593;51.716;7.016;2024-02-28T05:51:12;394.93;;;39.97;;
71753;SDS011;59593;51.716;7.016;2024-02-28T05:53:41;172.23;;;33.60;;
71753;SDS011;59593;51.716;7.016;2024-02-28T05:56:07;249.07;;;37.03;;
71753;SDS011;59593;51.716;7.016;2024-02-28T05:58:42;98.00;;;28.43;;
71753;SDS011;59593;51.716;7.016;2024-02-28T06:01:09;139.50;;;33.43;;
71753;SDS011;59593;51.716;7.016;2024-02-28T06:03:35;114.73;;;34.83;;
71753;SDS011;59593;51.716;7.016;2024-02-28T06:06:02;159.30;;;32.17;;
71753;SDS011;59593;51.716;7.016;2024-02-28T06:08:31;169.13;;;34.47;;
71753;SDS011;59593;51.716;7.016;2024-02-28T06:11:00;120.50;;;34.27;;
71753;SDS011;59593;51.716;7.016;2024-02-28T06:13:26;161.13;;;34.10;;
71753;SDS011;59593;51.716;7.016;2024-02-28T06:15:53;148.93;;;34.30;;
71753;SDS011;59593;51.716;7.016;2024-02-28T06:18:18;130.60;;;35.67;;
71753;SDS011;59593;51.716;7.016;2024-02-28T06:20:44;313.87;;;39.93;;
71753;SDS011;59593;51.716;7.016;2024-02-28T06:23:09;143.10;;;37.00;;
71753;SDS011;59593;51.716;7.016;2024-02-28T06:25:35;125.00;;;38.50;;
71753;SDS011;59593;51.716;7.016;2024-02-28T06:28:01;235.17;;;40.67;;
71753;SDS011;59593;51.716;7.016;2024-02-28T06:30:28;181.97;;;37.57;;
71753;SDS011;59593;51.716;7.016;2024-02-28T06:32:53;161.57;;;36.77;;
71753;SDS011;59593;51.716;7.016;2024-02-28T06:35:19;186.30;;;39.40;;
71753;SDS011;59593;51.716;7.016;2024-02-28T06:37:45;179.90;;;39.67;;
71753;SDS011;59593;51.716;7.016;2024-02-28T06:40:15;154.60;;;40.37;;
71753;SDS011;59593;51.716;7.016;2024-02-28T06:42:40;148.50;;;39.60;;
71753;SDS011;59593;51.716;7.016;2024-02-28T06:45:06;126.77;;;40.13;;
71753;SDS011;59593;51.716;7.016;2024-02-28T06:47:33;201.40;;;41.60;;
71753;SDS011;59593;51.716;7.016;2024-02-28T06:49:59;157.53;;;41.77;;
71753;SDS011;59593;51.716;7.016;2024-02-28T06:52:25;129.77;;;39.80;;
71753;SDS011;59593;51.716;7.016;2024-02-28T06:54:50;176.37;;;39.80;;
71753;SDS011;59593;51.716;7.016;2024-02-28T06:57:16;163.87;;;41.83;;
71753;SDS011;59593;51.716;7.016;2024-02-28T06:59:42;135.83;;;42.60;;
71753;SDS011;59593;51.716;7.016;2024-02-28T07:02:07;139.83;;;43.67;;
71753;SDS011;59593;51.716;7.016;2024-02-28T07:04:33;144.73;;;43.07;;
71753;SDS011;59593;51.716;7.016;2024-02-28T07:06:58;121.10;;;45.30;;
71753;SDS011;59593;51.716;7.016;2024-02-28T07:09:24;128.93;;;45.43;;
71753;SDS011;59593;51.716;7.016;2024-02-28T07:11:56;133.17;;;46.43;;
71753;SDS011;59593;51.716;7.016;2024-02-28T07:14:22;113.83;;;46.07;;
71753;SDS011;59593;51.716;7.016;2024-02-28T07:16:48;135.73;;;48.10;;
71753;SDS011;59593;51.716;7.016;2024-02-28T07:19:14;134.43;;;47.43;;
71753;SDS011;59593;51.716;7.016;2024-02-28T07:21:39;137.73;;;47.87;;
71753;SDS011;59593;51.716;7.016;2024-02-28T07:24:06;125.90;;;47.60;;
71753;SDS011;59593;51.716;7.016;2024-02-28T07:26:31;120.70;;;48.67;;
71753;SDS011;59593;51.716;7.016;2024-02-28T07:28:57;124.77;;;49.20;;
71753;SDS011;59593;51.716;7.016;2024-02-28T07:31:22;117.60;;;46.87;;
71753;SDS011;59593;51.716;7.016;2024-02-28T07:33:48;123.50;;;49.07;;
71753;SDS011;59593;51.716;7.016;2024-02-28T07:36:14;128.10;;;49.07;;
71753;SDS011;59593;51.716;7.016;2024-02-28T07:38:41;129.97;;;51.27;;
71753;SDS011;59593;51.716;7.016;2024-02-28T07:41:07;124.17;;;49.50;;
71753;SDS011;59593;51.716;7.016;2024-02-28T07:43:33;140.73;;;50.13;;
71753;SDS011;59593;51.716;7.016;2024-02-28T07:46:02;132.57;;;52.10;;
71753;SDS011;59593;51.716;7.016;2024-02-28T07:48:32;135.37;;;51.90;;
71753;SDS011;59593;51.716;7.016;2024-02-28T07:50:58;138.23;;;51.17;;
71753;SDS011;59593;51.716;7.016;2024-02-28T07:53:23;133.93;;;52.23;;
71753;SDS011;59593;51.716;7.016;2024-02-28T07:55:49;132.40;;;51.00;;
71753;SDS011;59593;51.716;7.016;2024-02-28T07:58:15;119.30;;;46.80;;
71753;SDS011;59593;51.716;7.016;2024-02-28T08:00:41;115.23;;;47.13;;
71753;SDS011;59593;51.716;7.016;2024-02-28T08:03:09;117.90;;;48.40;;
71753;SDS011;59593;51.716;7.016;2024-02-28T08:05:34;118.30;;;49.30;;
71753;SDS011;59593;51.716;7.016;2024-02-28T08:08:04;114.93;;;45.60;;
71753;SDS011;59593;51.716;7.016;2024-02-28T08:10:30;117.30;;;47.40;;
71753;SDS011;59593;51.716;7.016;2024-02-28T08:12:56;112.23;;;48.27;;
71753;SDS011;59593;51.716;7.016;2024-02-28T08:15:22;121.57;;;48.43;;
71753;SDS011;59593;51.716;7.016;2024-02-28T08:17:47;113.53;;;47.27;;
71753;SDS011;59593;51.716;7.016;2024-02-28T08:20:13;114.40;;;47.57;;
71753;SDS011;59593;51.716;7.016;2024-02-28T08:22:39;112.23;;;46.40;;
71753;SDS011;59593;51.716;7.016;2024-02-28T08:25:04;100.50;;;44.43;;
71753;SDS011;59593;51.716;7.016;2024-02-28T08:27:30;106.10;;;44.67;;
71753;SDS011;59593;51.716;7.016;2024-02-28T08:29:56;112.87;;;45.53;;
71753;SDS011;59593;51.716;7.016;2024-02-28T08:32:21;103.60;;;43.50;;
71753;SDS011;59593;51.716;7.016;2024-02-28T08:34:47;105.63;;;43.40;;
71753;SDS011;59593;51.716;7.016;2024-02-28T08:37:15;112.07;;;45.30;;
71753;SDS011;59593;51.716;7.016;2024-02-28T08:39:42;114.03;;;46.07;;
71753;SDS011;59593;51.716;7.016;2024-02-28T08:42:07;106.77;;;44.27;;
71753;SDS011;59593;51.716;7.016;2024-02-28T08:44:33;117.60;;;45.70;;
71753;SDS011;59593;51.716;7.016;2024-02-28T08:46:58;115.23;;;48.37;;
71753;SDS011;59593;51.716;7.016;2024-02-28T08:49:24;108.53;;;46.50;;
71753;SDS011;59593;51.716;7.016;2024-02-28T08:51:50;109.43;;;48.37;;
71753;SDS011;59593;51.716;7.016;2024-02-28T08:54:15;103.77;;;45.77;;
71753;SDS011;59593;51.716;7.016;2024-02-28T08:56:41;99.67;;;43.50;;
71753;SDS011;59593;51.716;7.016;2024-02-28T08:59:06;84.50;;;39.47;;
71753;SDS011;59593;51.716;7.016;2024-02-28T09:01:32;87.43;;;37.97;;
71753;SDS011;59593;51.716;7.016;2024-02-28T09:04:01;84.40;;;38.20;;
71753;SDS011;59593;51.716;7.016;2024-02-28T09:06:27;79.27;;;36.53;;
71753;SDS011;59593;51.716;7.016;2024-02-28T09:08:52;86.07;;;38.80;;
71753;SDS011;59593;51.716;7.016;2024-02-28T09:11:18;88.10;;;39.03;;
71753;SDS011;59593;51.716;7.016;2024-02-28T09:13:44;86.60;;;41.07;;
71753;SDS011;59593;51.716;7.016;2024-02-28T09:16:09;92.83;;;42.40;;
71753;SDS011;59593;51.716;7.016;2024-02-28T09:18:35;92.20;;;42.30;;
71753;SDS011;59593;51.716;7.016;2024-02-28T09:21:00;95.40;;;43.00;;
71753;SDS011;59593;51.716;7.016;2024-02-28T09:23:26;97.77;;;41.87;;
71753;SDS011;59593;51.716;7.016;2024-02-28T09:25:52;100.03;;;43.43;;
71753;SDS011;59593;51.716;7.016;2024-02-28T09:28:17;99.73;;;42.83;;
71753;SDS011;59593;51.716;7.016;2024-02-28T09:30:43;96.17;;;42.83;;
71753;SDS011;59593;51.716;7.016;2024-02-28T09:33:08;103.53;;;43.30;;
71753;SDS011;59593;51.716;7.016;2024-02-28T09:35:35;91.07;;;40.10;;
71753;SDS011;59593;51.716;7.016;2024-02-28T09:38:01;89.67;;;40.87;;
71753;SDS011;59593;51.716;7.016;2024-02-28T09:40:27;95.30;;;42.23;;
71753;SDS011;59593;51.716;7.016;2024-02-28T09:42:53;96.57;;;42.40;;
71753;SDS011;59593;51.716;7.016;2024-02-28T09:45:26;105.07;;;45.10;;
71753;SDS011;59593;51.716;7.016;2024-02-28T09:47:55;104.43;;;43.10;;
71753;SDS011;59593;51.716;7.016;2024-02-28T09:50:28;93.87;;;40.63;;
71753;SDS011;59593;51.716;7.016;2024-02-28T09:52:54;88.63;;;40.03;;
71753;SDS011;59593;51.716;7.016;2024-02-28T09:55:20;93.70;;;42.50;;
71753;SDS011;59593;51.716;7.016;2024-02-28T09:57:48;91.73;;;40.00;;
71753;SDS011;59593;51.716;7.016;2024-02-28T10:00:18;97.83;;;42.73;;
71753;SDS011;59593;51.716;7.016;2024-02-28T10:02:46;91.70;;;41.53;;
71753;SDS011;59593;51.716;7.016;2024-02-28T10:05:13;94.67;;;42.83;;
71753;SDS011;59593;51.716;7.016;2024-02-28T10:07:39;91.77;;;41.97;;
71753;SDS011;59593;51.716;7.016;2024-02-28T10:10:06;95.23;;;40.23;;
71753;SDS011;59593;51.716;7.016;2024-02-28T10:12:33;90.23;;;40.97;;
71753;SDS011;59593;51.716;7.016;2024-02-28T10:14:59;87.87;;;40.83;;
71753;SDS011;59593;51.716;7.016;2024-02-28T10:17:25;84.43;;;40.67;;
71753;SDS011;59593;51.716;7.016;2024-02-28T10:19:51;85.83;;;41.47;;
71753;SDS011;59593;51.716;7.016;2024-02-28T10:22:17;88.37;;;40.30;;
71753;SDS011;59593;51.716;7.016;2024-02-28T10:24:43;85.17;;;41.27;;
71753;SDS011;59593;51.716;7.016;2024-02-28T10:27:09;81.77;;;39.80;;
71753;SDS011;59593;51.716;7.016;2024-02-28T10:29:34;70.33;;;33.63;;
71753;SDS011;59593;51.716;7.016;2024-02-28T10:32:00;77.23;;;37.47;;
71753;SDS011;59593;51.716;7.016;2024-02-28T10:34:28;77.07;;;37.63;;
71753;SDS011;59593;51.716;7.016;2024-02-28T10:36:54;78.17;;;39.07;;
71753;SDS011;59593;51.716;7.016;2024-02-28T10:39:22;81.43;;;38.27;;
71753;SDS011;59593;51.716;7.016;2024-02-28T10:41:49;76.53;;;38.67;;
71753;SDS011;59593;51.716;7.016;2024-02-28T10:44:17;78.27;;;37.80;;
71753;SDS011;59593;51.716;7.016;2024-02-28T10:46:45;79.57;;;38.83;;
71753;SDS011;59593;51.716;7.016;2024-02-28T10:49:14;80.27;;;39.33;;
71753;SDS011;59593;51.716;7.016;2024-02-28T10:51:40;78.67;;;37.87;;
71753;SDS011;59593;51.716;7.016;2024-02-28T10:54:11;83.90;;;39.57;;
71753;SDS011;59593;51.716;7.016;2024-02-28T10:56:38;77.27;;;38.03;;
71753;SDS011;59593;51.716;7.016;2024-02-28T10:59:08;80.83;;;37.73;;
71753;SDS011;59593;51.716;7.016;2024-02-28T11:01:35;75.50;;;36.87;;
71753;SDS011;59593;51.716;7.016;2024-02-28T11:04:03;82.70;;;39.17;;
71753;SDS011;59593;51.716;7.016;2024-02-28T11:06:30;82.27;;;40.27;;
71753;SDS011;59593;51.716;7.016;2024-02-28T11:08:58;88.03;;;43.13;;
71753;SDS011;59593;51.716;7.016;2024-02-28T11:11:24;99.43;;;45.07;;
71753;SDS011;59593;51.716;7.016;2024-02-28T11:13:56;82.00;;;39.90;;
71753;SDS011;59593;51.716;7.016;2024-02-28T11:16:34;84.63;;;41.93;;
71753;SDS011;59593;51.716;7.016;2024-02-28T11:19:01;81.47;;;41.20;;
71753;SDS011;59593;51.716;7.016;2024-02-28T11:21:28;78.30;;;38.37;;
71753;SDS011;59593;51.716;7.016;2024-02-28T11:23:58;65.50;;;36.77;;
71753;SDS011;59593;51.716;7.016;2024-02-28T11:26:25;69.23;;;35.47;;
71753;SDS011;59593;51.716;7.016;2024-02-28T11:28:52;76.40;;;37.07;;
71753;SDS011;59593;51.716;7.016;2024-02-28T11:31:19;72.00;;;36.20;;
71753;SDS011;59593;51.716;7.016;2024-02-28T11:33:45;72.40;;;37.70;;
71753;SDS011;59593;51.716;7.016;2024-02-28T11:36:11;67.53;;;36.00;;
71753;SDS011;59593;51.716;7.016;2024-02-28T11:38:38;68.50;;;34.77;;
71753;SDS011;59593;51.716;7.016;2024-02-28T11:41:04;76.03;;;38.53;;
71753;SDS011;59593;51.716;7.016;2024-02-28T11:43:30;69.47;;;36.23;;
71753;SDS011;59593;51.716;7.016;2024-02-28T11:45:57;72.73;;;35.80;;
71753;SDS011;59593;51.716;7.016;2024-02-28T11:48:23;68.50;;;36.27;;
71753;SDS011;59593;51.716;7.016;2024-02-28T11:50:51;72.83;;;37.67;;
71753;SDS011;59593;51.716;7.016;2024-02-28T11:53:17;69.03;;;36.67;;
71753;SDS011;59593;51.716;7.016;2024-02-28T11:55:43;73.53;;;38.70;;
71753;SDS011;59593;51.716;7.016;2024-02-28T11:58:12;75.23;;;38.40;;
71753;SDS011;59593;51.716;7.016;2024-02-28T12:00:51;74.67;;;38.07;;
71753;SDS011;59593;51.716;7.016;2024-02-28T12:03:23;70.03;;;38.27;;
71753;SDS011;59593;51.716;7.016;2024-02-28T12:05:50;70.33;;;37.03;;
71753;SDS011;59593;51.716;7.016;2024-02-28T12:08:17;64.77;;;35.03;;
71753;SDS011;59593;51.716;7.016;2024-02-28T12:10:46;69.07;;;37.73;;
71753;SDS011;59593;51.716;7.016;2024-02-28T12:13:16;67.50;;;35.77;;
71753;SDS011;59593;51.716;7.016;2024-02-28T12:15:42;67.00;;;37.43;;
71753;SDS011;59593;51.716;7.016;2024-02-28T12:18:09;75.33;;;37.83;;
71753;SDS011;59593;51.716;7.016;2024-02-28T12:20:37;69.53;;;37.47;;
71753;SDS011;59593;51.716;7.016;2024-02-28T12:23:04;68.07;;;37.33;;
71753;SDS011;59593;51.716;7.016;2024-02-28T12:25:30;66.43;;;37.40;;
71753;SDS011;59593;51.716;7.016;2024-02-28T12:27:56;64.37;;;37.23;;
71753;SDS011;59593;51.716;7.016;2024-02-28T12:30:21;68.00;;;37.20;;
71753;SDS011;59593;51.716;7.016;2024-02-28T12:32:47;64.77;;;35.57;;
71753;SDS011;59593;51.716;7.016;2024-02-28T12:35:13;65.43;;;35.93;;
71753;SDS011;59593;51.716;7.016;2024-02-28T12:37:38;68.73;;;35.83;;
71753;SDS011;59593;51.716;7.016;2024-02-28T12:40:04;65.17;;;35.57;;
71753;SDS011;59593;51.716;7.016;2024-02-28T12:42:30;73.20;;;39.83;;
71753;SDS011;59593;51.716;7.016;2024-02-28T12:44:57;60.60;;;33.47;;
71753;SDS011;59593;51.716;7.016;2024-02-28T12:47:22;55.97;;;32.27;;
71753;SDS011;59593;51.716;7.016;2024-02-28T12:49:48;57.30;;;32.93;;
71753;SDS011;59593;51.716;7.016;2024-02-28T12:52:13;56.60;;;32.37;;
71753;SDS011;59593;51.716;7.016;2024-02-28T12:54:39;51.37;;;31.27;;
71753;SDS011;59593;51.716;7.016;2024-02-28T12:57:04;45.40;;;25.47;;
71753;SDS011;59593;51.716;7.016;2024-02-28T12:59:31;50.17;;;27.43;;
71753;SDS011;59593;51.716;7.016;2024-02-28T13:01:58;45.63;;;26.17;;
71753;SDS011;59593;51.716;7.016;2024-02-28T13:04:23;48.17;;;25.63;;
71753;SDS011;59593;51.716;7.016;2024-02-28T13:06:51;46.93;;;27.50;;
71753;SDS011;59593;51.716;7.016;2024-02-28T13:09:18;48.77;;;27.50;;
71753;SDS011;59593;51.716;7.016;2024-02-28T13:11:43;51.10;;;27.93;;
71753;SDS011;59593;51.716;7.016;2024-02-28T13:14:09;45.83;;;26.70;;
71753;SDS011;59593;51.716;7.016;2024-02-28T13:16:35;47.03;;;27.13;;
71753;SDS011;59593;51.716;7.016;2024-02-28T13:19:01;40.93;;;24.83;;
71753;SDS011;59593;51.716;7.016;2024-02-28T13:21:27;43.77;;;24.90;;
71753;SDS011;59593;51.716;7.016;2024-02-28T13:23:54;40.40;;;25.77;;
71753;SDS011;59593;51.716;7.016;2024-02-28T13:26:20;39.73;;;25.33;;
71753;SDS011;59593;51.716;7.016;2024-02-28T13:28:46;42.37;;;25.30;;
71753;SDS011;59593;51.716;7.016;2024-02-28T13:31:11;45.13;;;26.03;;
71753;SDS011;59593;51.716;7.016;2024-02-28T13:33:38;47.83;;;26.27;;
71753;SDS011;59593;51.716;7.016;2024-02-28T13:36:06;45.97;;;26.67;;
71753;SDS011;59593;51.716;7.016;2024-02-28T13:38:32;45.63;;;26.53;;
71753;SDS011;59593;51.716;7.016;2024-02-28T13:40:57;44.30;;;26.03;;
71753;SDS011;59593;51.716;7.016;2024-02-28T13:43:24;42.17;;;25.70;;
71753;SDS011;59593;51.716;7.016;2024-02-28T13:45:50;40.90;;;25.30;;
71753;SDS011;59593;51.716;7.016;2024-02-28T13:48:20;46.13;;;26.60;;
71753;SDS011;59593;51.716;7.016;2024-02-28T13:50:47;45.20;;;25.70;;
71753;SDS011;59593;51.716;7.016;2024-02-28T13:53:14;44.00;;;26.07;;
71753;SDS011;59593;51.716;7.016;2024-02-28T13:55:40;42.87;;;25.47;;
71753;SDS011;59593;51.716;7.016;2024-02-28T13:58:12;44.03;;;25.47;;
71753;SDS011;59593;51.716;7.016;2024-02-28T14:00:40;40.97;;;25.47;;
71753;SDS011;59593;51.716;7.016;2024-02-28T14:03:06;43.73;;;25.63;;
71753;SDS011;59593;51.716;7.016;2024-02-28T14:05:33;40.37;;;24.17;;
71753;SDS011;59593;51.716;7.016;2024-02-28T14:07:59;42.13;;;24.63;;
71753;SDS011;59593;51.716;7.016;2024-02-28T14:10:26;44.43;;;25.80;;